Details for All Nippon Airways at RJTT




Go Back


Latest METAR
Local Time

RJTT 232330Z 27003KT 9999 FEW030 SCT040 BKN/// 06/M01 Q1024 BECMG 12006KT

24/02/2018, 09:00:48

Description
Results
All Nippon Airways Logo
Number of Pilots based at RJTT
0 Pilots Based here
Number of All Nippon Airways Flights Departed from RJTT
0 Flights Departed
Number of All Nippon Airways Flights Arrived at RJTT
0 Flights Arrived
Number of All Nippon Airways Schedules Departing from RJTT
226 Schedules
Number of All Nippon Airways Schedules Arriving at RJTT
229 Schedules
Number of All Nippon Airways Schedules Departing from RJTT availible today
222 Schedules Today
Number of All Nippon Airways Schedules Arriving at RJTT availible today
224 Schedules Today
Average Landing Rate at RJTT
0 fpm
All Nippon Airways Average Landing Rate at RJTT
0 fpm
Total Fuel Purchased at RJTT by All Nippon Airways
0.00 kgs / 0.00 lbs

Pilots Based at RJTT


Pilot ID
Pilot Name
Pilot Rank
No. of Flights
No. of Flying Hours
There are no pilots assigned to this hub!   Will you be the first?
Content